Terminal Aerodrome Forecast
Issued by NWS Grand Forks, ND

Home | Current Version | Previous Version | Text Only | Print | Product List | Glossary Off
Versions: 1 2 3 4 5 6 7 8 9 10 11 12 13 14 15 16 17 18 19 20 21 22 23 24 25

921
FTUS43 KFGF 232339
TAFGFK
TAF
KGFK 232339Z 2400/2424 VRB03KT P6SM SCT030 OVC070
     FM240600 24008KT P6SM BKN100
     FM240900 35009KT P6SM BKN025
     FM241200 36010KT P6SM SCT035=

USA.gov is the U.S. government's official web portal to all federal, state and local government web resources and services.